createdAt,value
2023-02-05T00:00:42.123Z,103874.44
2023-02-05T00:03:10.122Z,103869.13
2023-02-05T00:05:39.576Z,103859.59
2023-02-05T00:08:07.571Z,103860.31
2023-02-05T00:10:35.535Z,103855.97
2023-02-05T00:13:03.579Z,103857.72
2023-02-05T00:15:31.802Z,103850.63
2023-02-05T00:18:00.155Z,103854.22
2023-02-05T00:20:28.709Z,103845.47
2023-02-05T00:22:58.130Z,103845.25
2023-02-05T00:25:26.074Z,103833.81
2023-02-05T00:27:54.085Z,103828.66
2023-02-05T00:30:22.180Z,103811.19
2023-02-05T00:32:50.041Z,103814.75
2023-02-05T00:35:18.006Z,103806.66
2023-02-05T00:37:45.816Z,103796.00
2023-02-05T00:40:15.143Z,103781.00
2023-02-05T00:42:43.058Z,103773.84
2023-02-05T00:45:11.405Z,103774.75
2023-02-05T00:47:39.227Z,103772.63
2023-02-05T00:50:07.675Z,103771.03
2023-02-05T00:52:35.593Z,103792.19
2023-02-05T00:55:03.450Z,103792.22
2023-02-05T00:57:33.128Z,103795.47
2023-02-05T01:00:01.027Z,103773.78
2023-02-05T01:02:29.094Z,103767.69
2023-02-05T01:04:57.192Z,103773.09
2023-02-05T01:07:25.126Z,103760.00
2023-02-05T01:09:53.053Z,103762.53
2023-02-05T01:12:22.352Z,103760.63
2023-02-05T01:14:51.668Z,103768.53
2023-02-05T01:17:19.588Z,103759.75
2023-02-05T01:19:47.882Z,103749.16
2023-02-05T01:22:16.036Z,103732.25
2023-02-05T01:24:45.238Z,103724.03
2023-02-05T01:27:13.132Z,103719.78
2023-02-05T01:29:41.515Z,103725.13
2023-02-05T01:32:11.178Z,103719.84
2023-02-05T01:34:39.990Z,103711.88
2023-02-05T01:37:07.970Z,103707.63
2023-02-05T01:39:36.359Z,103710.25
2023-02-05T01:42:05.373Z,103705.75
2023-02-05T01:44:33.507Z,103697.94
2023-02-05T01:47:01.452Z,103699.50
2023-02-05T01:49:35.097Z,103699.75
2023-02-05T01:52:06.642Z,103709.19
2023-02-05T01:54:39.230Z,103699.47
2023-02-05T01:57:11.348Z,103710.13
2023-02-05T01:59:42.325Z,103704.84
2023-02-05T02:02:10.497Z,103701.56
2023-02-05T02:04:43.055Z,103687.59
2023-02-05T02:07:14.293Z,103692.09
2023-02-05T02:09:44.288Z,103689.47
2023-02-05T02:12:15.142Z,103686.47
2023-02-05T02:14:48.741Z,103697.75
2023-02-05T02:17:19.407Z,103703.19
2023-02-05T02:19:54.441Z,103712.22
2023-02-05T02:22:44.222Z,103715.78
2023-02-05T02:25:39.605Z,103709.81
2023-02-05T02:28:13.729Z,103715.19
2023-02-05T02:30:45.302Z,103711.00
2023-02-05T02:33:19.886Z,103697.91
2023-02-05T02:35:53.843Z,103700.56
2023-02-05T02:38:28.302Z,103699.78
2023-02-05T02:41:00.595Z,103698.09
2023-02-05T02:43:33.397Z,103697.16
2023-02-05T02:46:05.529Z,103690.44
2023-02-05T02:48:36.377Z,103694.84
2023-02-05T02:51:05.310Z,103700.13
2023-02-05T02:53:39.768Z,103701.91
2023-02-05T02:56:12.078Z,103694.06
2023-02-05T02:58:44.368Z,103694.69
2023-02-05T03:01:14.019Z,103698.31
2023-02-05T03:03:46.831Z,103699.34
2023-02-05T03:06:17.774Z,103690.53
2023-02-05T03:08:51.904Z,103696.63
2023-02-05T03:11:19.901Z,103690.47
2023-02-05T03:13:49.718Z,103688.88
2023-02-05T03:16:19.728Z,103691.31
2023-02-05T03:18:48.862Z,103680.81
2023-02-05T03:21:19.684Z,103671.00
2023-02-05T03:23:49.870Z,103669.31
2023-02-05T03:26:28.565Z,103666.56
2023-02-05T03:28:59.488Z,103658.69
2023-02-05T03:31:37.320Z,103673.53
2023-02-05T03:34:19.982Z,103660.41
2023-02-05T03:36:58.976Z,103659.53
2023-02-05T03:39:36.229Z,103648.06
2023-02-05T03:42:13.880Z,103633.97
2023-02-05T03:45:13.899Z,103632.06
2023-02-05T03:47:56.780Z,103620.59
2023-02-05T03:50:31.417Z,103619.56
2023-02-05T03:53:10.018Z,103613.44
2023-02-05T03:55:42.792Z,103608.88
2023-02-05T03:58:16.164Z,103613.94
2023-02-05T04:00:46.142Z,103600.44
2023-02-05T04:03:14.805Z,103601.59
2023-02-05T04:05:42.623Z,103596.31
2023-02-05T04:08:10.671Z,103605.25
2023-02-05T04:10:38.670Z,103621.84
2023-02-05T04:13:07.282Z,103627.88
2023-02-05T04:15:35.696Z,103622.75
2023-02-05T04:18:05.654Z,103613.84
2023-02-05T04:20:33.800Z,103613.63
2023-02-05T04:23:01.704Z,103608.56
2023-02-05T04:25:29.761Z,103616.75
2023-02-05T04:27:57.603Z,103618.66
2023-02-05T04:30:26.512Z,103610.00
2023-02-05T04:32:54.474Z,103604.75
2023-02-05T04:35:23.862Z,103592.69
2023-02-05T04:37:51.767Z,103583.13
2023-02-05T04:40:20.541Z,103576.81
2023-02-05T04:42:48.456Z,103573.97
2023-02-05T04:45:16.586Z,103569.66
2023-02-05T04:47:44.551Z,103571.47
2023-02-05T04:50:13.075Z,103562.06
2023-02-05T04:52:42.287Z,103547.94
2023-02-05T04:55:10.267Z,103547.13
2023-02-05T04:57:38.362Z,103539.94
2023-02-05T05:00:07.048Z,103549.81
2023-02-05T05:02:35.160Z,103552.50
2023-02-05T05:05:03.092Z,103553.28
2023-02-05T05:07:31.347Z,103553.41
2023-02-05T05:10:00.726Z,103556.91
2023-02-05T05:12:28.567Z,103549.19
2023-02-05T05:14:57.595Z,103539.47
2023-02-05T05:17:25.529Z,103552.63
2023-02-05T05:19:53.578Z,103549.19
2023-02-05T05:22:21.693Z,103548.56
2023-02-05T05:24:49.753Z,103538.72
2023-02-05T05:27:19.163Z,103537.91
2023-02-05T05:29:47.357Z,103529.09
2023-02-05T05:32:15.529Z,103523.84
2023-02-05T05:34:43.578Z,103516.88
2023-02-05T05:37:11.446Z,103527.31
2023-02-05T05:39:56.655Z,103513.13
2023-02-05T05:42:43.163Z,103528.94
2023-02-05T05:45:11.066Z,103515.78
2023-02-05T05:47:39.138Z,103520.13
2023-02-05T05:50:08.189Z,103521.19
2023-02-05T05:52:36.195Z,103526.47
2023-02-05T05:55:04.043Z,103521.19
2023-02-05T05:57:34.270Z,103509.78
2023-02-05T06:00:02.867Z,103510.72
2023-02-05T06:02:30.929Z,103503.59
2023-02-05T06:04:58.827Z,103497.44
2023-02-05T06:07:27.037Z,103489.81
2023-02-05T06:09:54.923Z,103494.16
2023-02-05T06:12:22.817Z,103495.84
2023-02-05T06:14:52.219Z,103488.81
2023-02-05T06:17:20.144Z,103475.75
2023-02-05T06:19:48.298Z,103461.75
2023-02-05T06:22:16.256Z,103463.50
2023-02-05T06:24:44.113Z,103455.63
2023-02-05T06:27:12.042Z,103454.38
2023-02-05T06:29:40.064Z,103459.63
2023-02-05T06:32:09.355Z,103462.25
2023-02-05T06:34:37.243Z,103475.47
2023-02-05T06:37:05.089Z,103464.16
2023-02-05T06:39:32.925Z,103470.31
2023-02-05T06:42:00.885Z,103466.00
2023-02-05T06:44:29.331Z,103471.47
2023-02-05T06:46:57.376Z,103487.25
2023-02-05T06:49:26.645Z,103489.03
2023-02-05T06:51:54.569Z,103489.13
2023-02-05T06:54:22.677Z,103501.50
2023-02-05T06:56:51.916Z,103501.50
2023-02-05T06:59:19.938Z,103507.53
2023-02-05T07:01:47.921Z,103501.41
2023-02-05T07:04:18.466Z,103497.84
2023-02-05T07:06:48.242Z,103495.09
2023-02-05T07:09:16.378Z,103493.38
2023-02-05T07:11:44.176Z,103494.38
2023-02-05T07:14:12.394Z,103501.22
2023-02-05T07:16:40.382Z,103490.72
2023-02-05T07:19:08.586Z,103487.34
2023-02-05T07:21:38.466Z,103485.69
2023-02-05T07:24:08.266Z,103477.59
2023-02-05T07:26:37.021Z,103476.75
2023-02-05T07:29:05.360Z,103482.81
2023-02-05T07:31:33.343Z,103476.78
2023-02-05T07:34:01.600Z,103473.25
2023-02-05T07:36:29.554Z,103481.88
2023-02-05T07:38:58.966Z,103486.22
2023-02-05T07:41:28.180Z,103488.91
2023-02-05T07:43:56.137Z,103500.31
2023-02-05T07:46:24.908Z,103500.56
2023-02-05T07:48:53.643Z,103508.53
2023-02-05T07:51:24.653Z,103498.19
2023-02-05T07:53:53.508Z,103491.16
2023-02-05T07:56:22.719Z,103493.81
2023-02-05T07:58:52.618Z,103506.25
2023-02-05T08:01:20.581Z,103501.00
2023-02-05T08:03:48.939Z,103494.84
2023-02-05T08:06:19.635Z,103498.31
2023-02-05T08:08:48.695Z,103492.19
2023-02-05T08:11:18.229Z,103490.22
2023-02-05T08:13:46.826Z,103486.56
2023-02-05T08:16:16.958Z,103487.66
2023-02-05T08:18:50.190Z,103480.69
2023-02-05T08:21:19.338Z,103483.50
2023-02-05T08:23:47.519Z,103481.53
2023-02-05T08:26:16.507Z,103476.13
2023-02-05T08:28:46.138Z,103474.56
2023-02-05T08:31:18.158Z,103477.31
2023-02-05T08:33:47.819Z,103484.41
2023-02-05T08:36:16.396Z,103483.53
2023-02-05T08:38:44.466Z,103502.88
2023-02-05T08:41:13.439Z,103504.09
2023-02-05T08:43:43.148Z,103509.41
2023-02-05T08:46:11.957Z,103505.25
2023-02-05T08:48:43.902Z,103497.59
2023-02-05T08:51:13.181Z,103504.66
2023-02-05T08:53:42.301Z,103504.50
2023-02-05T08:56:18.693Z,103512.47
2023-02-05T08:58:48.493Z,103504.59
2023-02-05T09:01:18.430Z,103504.59
2023-02-05T09:03:48.042Z,103515.00
2023-02-05T09:06:17.258Z,103518.69
2023-02-05T09:08:47.331Z,103531.97
2023-02-05T09:11:15.399Z,103522.44
2023-02-05T09:13:45.959Z,103527.81
2023-02-05T09:16:15.244Z,103523.47
2023-02-05T09:18:44.528Z,103527.88
2023-02-05T09:21:16.195Z,103533.19
2023-02-05T09:23:44.329Z,103529.75
2023-02-05T09:26:12.523Z,103520.06
2023-02-05T09:28:43.032Z,103517.44
2023-02-05T09:31:17.149Z,103516.50
2023-02-05T09:33:46.489Z,103510.34
2023-02-05T09:36:17.670Z,103522.75
2023-02-05T09:38:46.502Z,103521.09
2023-02-05T09:41:24.635Z,103522.09
2023-02-05T09:43:58.206Z,103529.09
2023-02-05T09:46:37.305Z,103518.63
2023-02-05T09:49:15.036Z,103513.41
2023-02-05T09:51:47.155Z,103513.41
2023-02-05T09:54:21.779Z,103527.44
2023-02-05T09:56:51.554Z,103524.88
2023-02-05T09:59:23.723Z,103520.56
2023-02-05T10:01:55.988Z,103515.31
2023-02-05T10:04:26.596Z,103516.16
2023-02-05T10:07:31.957Z,103518.84
2023-02-05T10:10:18.527Z,103532.06
2023-02-05T10:13:02.443Z,103533.03
2023-02-05T10:15:50.258Z,103529.56
2023-02-05T10:18:28.510Z,103523.50
2023-02-05T10:21:09.011Z,103524.41
2023-02-05T10:24:01.824Z,103525.31
2023-02-05T10:26:37.720Z,103519.13
2023-02-05T10:29:16.585Z,103513.13
2023-02-05T10:31:56.725Z,103509.66
2023-02-05T10:34:38.523Z,103512.28
2023-02-05T10:37:13.450Z,103528.19
2023-02-05T10:39:43.337Z,103526.44
2023-02-05T10:42:28.719Z,103529.94
2023-02-05T10:45:04.793Z,103533.59
2023-02-05T10:47:47.287Z,103545.06
2023-02-05T10:50:26.213Z,103541.47
2023-02-05T10:52:54.403Z,103545.91
2023-02-05T10:55:23.817Z,103545.06
2023-02-05T10:57:52.022Z,103549.50
2023-02-05T11:00:21.928Z,103554.78
2023-02-05T11:02:55.061Z,103560.13
2023-02-05T11:05:29.242Z,103568.94
2023-02-05T11:08:01.266Z,103574.97
2023-02-05T11:10:33.785Z,103575.94
2023-02-05T11:13:15.973Z,103568.91
2023-02-05T11:15:56.309Z,103558.31
2023-02-05T11:18:30.774Z,103552.13
2023-02-05T11:21:01.494Z,103561.78
2023-02-05T11:23:32.999Z,103553.94
2023-02-05T11:26:08.784Z,103553.84
2023-02-05T11:28:39.731Z,103558.28
2023-02-05T11:31:23.320Z,103562.75
2023-02-05T11:33:51.423Z,103554.81
2023-02-05T11:36:23.578Z,103551.25
2023-02-05T11:38:54.032Z,103561.03
2023-02-05T11:41:31.782Z,103577.88
2023-02-05T11:44:01.885Z,103575.19
2023-02-05T11:46:36.082Z,103561.06
2023-02-05T11:49:05.562Z,103573.38
2023-02-05T11:51:46.255Z,103577.84
2023-02-05T11:54:21.577Z,103577.84
2023-02-05T11:57:08.516Z,103572.53
2023-02-05T11:59:37.067Z,103575.22
2023-02-05T12:02:33.583Z,103576.97
2023-02-05T12:05:08.572Z,103575.22
2023-02-05T12:07:41.094Z,103570.78
2023-02-05T12:10:16.912Z,103563.81
2023-02-05T12:12:59.873Z,103573.56
2023-02-05T12:16:00.610Z,103570.94
2023-02-05T12:18:39.924Z,103570.97
2023-02-05T12:21:17.359Z,103577.19
2023-02-05T12:23:59.704Z,103576.28
2023-02-05T12:26:33.948Z,103575.41
2023-02-05T12:29:27.936Z,103571.03
2023-02-05T12:32:02.521Z,103565.69
2023-02-05T12:34:46.601Z,103572.75
2023-02-05T12:37:29.684Z,103567.44
2023-02-05T12:40:08.801Z,103567.41
2023-02-05T12:42:39.229Z,103560.38
2023-02-05T12:45:25.591Z,103552.44
2023-02-05T12:48:11.125Z,103545.31
2023-02-05T12:50:54.928Z,103539.16
2023-02-05T12:53:48.790Z,103541.81
2023-02-05T12:56:34.627Z,103547.13
2023-02-05T12:59:09.346Z,103537.41
2023-02-05T13:01:44.029Z,103548.84
2023-02-05T13:04:24.222Z,103552.47
2023-02-05T13:06:59.768Z,103550.72
2023-02-05T13:09:35.273Z,103566.59
2023-02-05T13:12:09.808Z,103571.00
2023-02-05T13:14:42.614Z,103578.06
2023-02-05T13:17:18.890Z,103579.00
2023-02-05T13:19:50.844Z,103580.75
2023-02-05T13:22:40.814Z,103573.72
2023-02-05T13:25:39.072Z,103570.19
2023-02-05T13:28:42.456Z,103571.06
2023-02-05T13:31:23.425Z,103580.78
2023-02-05T13:33:55.099Z,103576.38
2023-02-05T13:36:54.875Z,103578.19
2023-02-05T13:39:58.370Z,103579.91
2023-02-05T13:43:05.272Z,103582.56
2023-02-05T13:46:23.506Z,103594.03
2023-02-05T13:49:34.547Z,103602.00
2023-02-05T13:52:33.435Z,103602.84
2023-02-05T13:55:20.269Z,103611.63
2023-02-05T13:58:20.659Z,103614.28
2023-02-05T14:00:57.330Z,103622.25
2023-02-05T14:03:35.393Z,103624.91
2023-02-05T14:06:29.159Z,103614.34
2023-02-05T14:09:03.922Z,103624.94
2023-02-05T14:11:48.195Z,103622.31
2023-02-05T14:14:25.186Z,103627.59
2023-02-05T14:16:54.941Z,103631.19
2023-02-05T14:19:26.947Z,103633.81
2023-02-05T14:22:04.199Z,103632.03
2023-02-05T14:24:46.782Z,103614.38
2023-02-05T14:27:47.658Z,103611.75
2023-02-05T14:30:48.071Z,103614.34
2023-02-05T14:33:34.143Z,103617.00
2023-02-05T14:36:35.211Z,103619.66
2023-02-05T14:39:08.306Z,103627.59
2023-02-05T14:41:50.856Z,103613.47
2023-02-05T14:44:22.579Z,103617.88
2023-02-05T14:47:01.852Z,103627.50
2023-02-05T14:49:37.877Z,103626.69
2023-02-05T14:52:09.490Z,103644.34
2023-02-05T14:54:46.698Z,103654.94
2023-02-05T14:57:23.597Z,103654.97
2023-02-05T14:59:56.074Z,103655.88
2023-02-05T15:02:52.861Z,103655.88
2023-02-05T15:05:27.122Z,103666.44
2023-02-05T15:08:05.868Z,103665.56
2023-02-05T15:10:47.199Z,103661.16
2023-02-05T15:13:17.215Z,103667.34
2023-02-05T15:16:10.509Z,103667.34
2023-02-05T15:18:42.052Z,103660.28
2023-02-05T15:21:17.530Z,103654.06
2023-02-05T15:23:49.887Z,103654.09
2023-02-05T15:26:26.473Z,103655.00
2023-02-05T15:29:00.865Z,103654.06
2023-02-05T15:31:34.949Z,103655.88
2023-02-05T15:34:21.607Z,103661.16
2023-02-05T15:36:55.271Z,103653.25
2023-02-05T15:39:31.543Z,103641.72
2023-02-05T15:42:04.112Z,103654.06
2023-02-05T15:44:34.266Z,103654.94
2023-02-05T15:47:05.278Z,103669.09
2023-02-05T15:49:38.161Z,103684.09
2023-02-05T15:52:07.158Z,103678.81
2023-02-05T15:54:37.809Z,103678.81
2023-02-05T15:57:09.266Z,103675.25
2023-02-05T15:59:37.429Z,103682.31
2023-02-05T16:02:09.545Z,103684.09
2023-02-05T16:04:40.163Z,103691.13
2023-02-05T16:07:22.022Z,103693.84
2023-02-05T16:09:53.817Z,103689.41
2023-02-05T16:12:23.506Z,103699.16
2023-02-05T16:15:02.718Z,103703.50
2023-02-05T16:17:36.689Z,103695.56
2023-02-05T16:20:16.924Z,103697.31
2023-02-05T16:22:48.817Z,103715.00
2023-02-05T16:25:29.255Z,103732.66
2023-02-05T16:28:01.156Z,103730.88
2023-02-05T16:30:35.201Z,103724.66
2023-02-05T16:33:05.564Z,103729.97
2023-02-05T16:35:37.667Z,103733.50
2023-02-05T16:38:09.152Z,103735.31
2023-02-05T16:40:43.167Z,103729.06
2023-02-05T16:43:29.886Z,103730.00
2023-02-05T16:46:34.161Z,103737.09
2023-02-05T16:49:03.155Z,103743.22
2023-02-05T16:51:35.565Z,103743.13
2023-02-05T16:54:22.382Z,103751.97
2023-02-05T16:56:59.438Z,103755.41
2023-02-05T16:59:32.917Z,103762.47
2023-02-05T17:02:01.451Z,103770.41
2023-02-05T17:04:32.651Z,103765.94
2023-02-05T17:07:02.460Z,103774.75
2023-02-05T17:09:36.815Z,103782.75
2023-02-05T17:12:41.295Z,103778.22
2023-02-05T17:15:40.536Z,103778.22
2023-02-05T17:18:24.427Z,103781.78
2023-02-05T17:20:52.547Z,103788.03
2023-02-05T17:23:20.706Z,103785.44
2023-02-05T17:25:55.108Z,103786.22
2023-02-05T17:28:25.945Z,103801.22
2023-02-05T17:30:57.865Z,103805.59
2023-02-05T17:33:29.481Z,103800.28
2023-02-05T17:35:57.814Z,103797.69
2023-02-05T17:38:25.632Z,103795.97
2023-02-05T17:41:13.545Z,103795.06
2023-02-05T17:43:41.698Z,103795.94
2023-02-05T17:46:14.713Z,103802.16
2023-02-05T17:48:44.597Z,103810.09
2023-02-05T17:51:19.512Z,103818.88
2023-02-05T17:53:47.620Z,103825.00
2023-02-05T17:56:16.112Z,103834.69
2023-02-05T17:58:43.996Z,103827.59
2023-02-05T18:01:13.511Z,103836.44
2023-02-05T18:03:41.494Z,103846.91
2023-02-05T18:06:11.666Z,103849.47
2023-02-05T18:08:39.776Z,103839.66
2023-02-05T18:11:07.890Z,103827.34
2023-02-05T18:13:36.240Z,103840.56
2023-02-05T18:16:04.484Z,103844.97
2023-02-05T18:18:36.260Z,103847.59
2023-02-05T18:21:04.959Z,103852.81
2023-02-05T18:23:33.525Z,103852.81
2023-02-05T18:26:08.621Z,103848.41
2023-02-05T18:28:37.082Z,103847.53
2023-02-05T18:31:17.431Z,103832.50
2023-02-05T18:33:56.977Z,103821.13
2023-02-05T18:36:25.111Z,103861.63
2023-02-05T18:38:57.486Z,103861.66
2023-02-05T18:41:25.910Z,103865.94
2023-02-05T18:43:55.638Z,103865.88
2023-02-05T18:46:24.658Z,103859.72
2023-02-05T18:48:55.429Z,103856.25
2023-02-05T18:51:24.710Z,103851.81
2023-02-05T18:53:54.014Z,103864.22
2023-02-05T18:56:24.228Z,103853.59
2023-02-05T18:58:54.513Z,103850.13
2023-02-05T19:01:22.918Z,103846.63
2023-02-05T19:03:52.870Z,103845.84
2023-02-05T19:06:22.655Z,103847.66
2023-02-05T19:08:51.443Z,103853.91
2023-02-05T19:11:22.996Z,103860.97
2023-02-05T19:13:59.781Z,103856.59
2023-02-05T19:16:29.500Z,103864.59
2023-02-05T19:18:57.905Z,103868.03
2023-02-05T19:21:29.658Z,103868.84
2023-02-05T19:23:59.443Z,103866.13
2023-02-05T19:26:29.685Z,103870.56
2023-02-05T19:28:59.157Z,103873.97
2023-02-05T19:31:30.061Z,103878.41
2023-02-05T19:33:58.695Z,103891.56
2023-02-05T19:36:29.203Z,103902.06
2023-02-05T19:39:00.480Z,103906.44
2023-02-05T19:41:29.164Z,103928.53
2023-02-05T19:43:59.833Z,103916.09
2023-02-05T19:46:29.205Z,103920.47
2023-02-05T19:49:00.614Z,103926.66
2023-02-05T19:51:29.970Z,103922.22
2023-02-05T19:53:58.978Z,103924.88
2023-02-05T19:56:27.708Z,103928.31
2023-02-05T19:58:57.347Z,103926.53
2023-02-05T20:01:26.949Z,103921.25
2023-02-05T20:03:56.602Z,103925.53
2023-02-05T20:06:27.098Z,103935.91
2023-02-05T20:08:56.988Z,103941.16
2023-02-05T20:11:24.872Z,103940.34
2023-02-05T20:13:53.915Z,103936.91
2023-02-05T20:16:24.030Z,103926.41
2023-02-05T20:18:54.998Z,103922.88
2023-02-05T20:21:23.202Z,103925.63
2023-02-05T20:23:51.606Z,103921.34
2023-02-05T20:26:22.301Z,103916.09
2023-02-05T20:29:11.399Z,103920.53
2023-02-05T20:31:42.945Z,103918.81
2023-02-05T20:34:18.160Z,103928.38
2023-02-05T20:36:47.642Z,103919.63
2023-02-05T20:39:17.198Z,103916.19
2023-02-05T20:41:47.395Z,103920.56
2023-02-05T20:44:15.595Z,103922.31
2023-02-05T20:46:43.725Z,103926.78
2023-02-05T20:49:11.745Z,103928.66
2023-02-05T20:51:39.879Z,103937.53
2023-02-05T20:54:07.922Z,103934.06
2023-02-05T20:56:36.474Z,103931.44
2023-02-05T20:59:07.742Z,103935.88
2023-02-05T21:01:41.408Z,103940.28
2023-02-05T21:04:12.910Z,103934.97
2023-02-05T21:06:42.144Z,103940.25
2023-02-05T21:09:10.898Z,103951.66
2023-02-05T21:11:39.297Z,103946.38
2023-02-05T21:14:09.675Z,103955.16
2023-02-05T21:16:38.276Z,103967.38
2023-02-05T21:19:08.745Z,103958.44
2023-02-05T21:21:38.129Z,103961.13
2023-02-05T21:24:08.508Z,103961.84
2023-02-05T21:26:38.675Z,103960.00
2023-02-05T21:29:11.151Z,103957.28
2023-02-05T21:31:41.873Z,103953.59
2023-02-05T21:34:12.895Z,103957.03
2023-02-05T21:36:41.457Z,103951.63
2023-02-05T21:39:10.759Z,103950.72
2023-02-05T21:41:39.846Z,103949.81
2023-02-05T21:44:09.751Z,103953.31
2023-02-05T21:46:38.379Z,103952.31
2023-02-05T21:49:08.155Z,103938.16
2023-02-05T21:51:36.756Z,103950.44
2023-02-05T21:54:07.089Z,103957.44
2023-02-05T21:56:37.031Z,103954.69
2023-02-05T21:59:05.639Z,103967.88
2023-02-05T22:01:36.705Z,103969.63
2023-02-05T22:04:08.301Z,103972.25
2023-02-05T22:06:37.051Z,103987.03
2023-02-05T22:09:07.028Z,103977.28
2023-02-05T22:11:35.186Z,103978.09
2023-02-05T22:14:03.536Z,103976.22
2023-02-05T22:16:34.764Z,103976.31
2023-02-05T22:19:04.753Z,103987.78
2023-02-05T22:21:34.766Z,103989.50
2023-02-05T22:24:04.067Z,103995.56
2023-02-05T22:26:34.292Z,103995.50
2023-02-05T22:29:04.555Z,103993.72
2023-02-05T22:31:32.444Z,103996.41
2023-02-05T22:34:01.966Z,103991.94
2023-02-05T22:36:31.795Z,103991.06
2023-02-05T22:39:01.955Z,103984.75
2023-02-05T22:41:31.930Z,103988.94
2023-02-05T22:44:01.271Z,103981.84
2023-02-05T22:46:30.782Z,103975.69
2023-02-05T22:49:01.627Z,103976.47
2023-02-05T22:51:31.784Z,103994.00
2023-02-05T22:54:00.239Z,103991.31
2023-02-05T22:56:29.212Z,103998.38
2023-02-05T22:58:57.649Z,103995.66
2023-02-05T23:01:27.925Z,103993.06
2023-02-05T23:03:57.297Z,103992.03
2023-02-05T23:06:28.755Z,103985.84
2023-02-05T23:08:58.803Z,103987.53
2023-02-05T23:11:28.307Z,103990.03
2023-02-05T23:13:56.868Z,103989.84
2023-02-05T23:16:29.841Z,103984.56
2023-02-05T23:19:01.218Z,103976.63
2023-02-05T23:21:33.089Z,103983.78
2023-02-05T23:24:03.811Z,103991.56
2023-02-05T23:26:33.917Z,103982.72
2023-02-05T23:29:04.950Z,103983.72
2023-02-05T23:31:33.647Z,103984.69
2023-02-05T23:34:02.259Z,103986.41
2023-02-05T23:36:31.661Z,103983.56
2023-02-05T23:39:00.030Z,103998.56
2023-02-05T23:41:37.242Z,103981.00
2023-02-05T23:44:07.398Z,103977.47
2023-02-05T23:46:36.646Z,103976.66
2023-02-05T23:49:04.850Z,103985.53
2023-02-05T23:51:35.178Z,103990.88
2023-02-05T23:54:03.516Z,103985.44
2023-02-05T23:56:33.854Z,103986.25
2023-02-05T23:59:02.321Z,103980.84
